Time;durP1;ratioP1;P1;durP2;ratioP2;P2;SDS_P1;SDS_P2;PMS_P1;PMS_P2;Temp;Humidity;BMP_temperature;BMP_pressure;BME280_temperature;BME280_humidity;BME280_pressure;Samples;Min_cycle;Max_cycle;Signal;HPM_P1;HPM_P2
2022/07/28 00:02:18;;;;;;;0.85;0.10;;;13.70;99.90;;;;;;5001555;28;20121;-80
2022/07/28 00:04:44;;;;;;;0.60;0.10;;;13.60;99.90;;;;;;4992685;28;20026;-81
2022/07/28 00:07:09;;;;;;;0.43;0.10;;;13.60;99.90;;;;;;4990878;28;20061;-81
2022/07/28 00:09:35;;;;;;;0.90;0.10;;;13.50;99.90;;;;;;4992404;28;20133;-83
2022/07/28 00:12:01;;;;;;;0.68;0.10;;;13.60;99.90;;;;;;4974174;28;20026;-83
2022/07/28 00:14:26;;;;;;;1.00;0.20;;;13.50;99.90;;;;;;4975793;28;20029;-81
2022/07/28 00:16:52;;;;;;;1.10;0.17;;;13.50;99.90;;;;;;4991301;28;20030;-83
2022/07/28 00:19:19;;;;;;;0.80;0.10;;;13.40;99.90;;;;;;4992885;28;20030;-79
2022/07/28 00:21:45;;;;;;;5.35;0.10;;;13.40;99.90;;;;;;4994690;28;20026;-80
2022/07/28 00:24:10;;;;;;;0.50;0.10;;;13.40;99.90;;;;;;4995523;28;20029;-84
2022/07/28 00:26:36;;;;;;;0.80;0.20;;;13.40;99.90;;;;;;4988536;28;20041;-85
2022/07/28 00:29:03;;;;;;;1.00;0.20;;;13.40;99.90;;;;;;4971176;28;20033;-81
2022/07/28 00:31:29;;;;;;;0.43;0.10;;;13.40;99.90;;;;;;4989091;28;20117;-81
2022/07/28 00:33:54;;;;;;;0.90;0.20;;;13.50;99.90;;;;;;5004957;28;20139;-82
2022/07/28 00:36:20;;;;;;;0.43;0.15;;;13.40;99.90;;;;;;4991008;28;20062;-79
2022/07/28 00:38:46;;;;;;;0.32;0.10;;;13.40;99.90;;;;;;4999226;28;20492;-80
2022/07/28 00:41:12;;;;;;;0.75;0.10;;;13.50;99.90;;;;;;4990380;28;20113;-80
2022/07/28 00:43:46;;;;;;;0.20;0.10;;;13.50;99.90;;;;;;4973484;28;20038;-80
2022/07/28 00:46:14;;;;;;;0.28;0.10;;;13.40;99.90;;;;;;4972586;28;20392;-81
2022/07/28 00:48:42;;;;;;;0.43;0.10;;;13.30;99.90;;;;;;4996423;28;20104;-81
2022/07/28 00:51:09;;;;;;;1.23;0.10;;;13.20;99.90;;;;;;4997850;28;20030;-80
2022/07/28 00:53:36;;;;;;;0.68;0.15;;;13.20;99.90;;;;;;4975087;28;20049;-82
2022/07/28 00:56:02;;;;;;;0.50;0.10;;;13.20;99.90;;;;;;4967303;28;20577;-80
2022/07/28 00:58:28;;;;;;;0.90;0.20;;;13.30;99.90;;;;;;4989052;28;20034;-82
2022/07/28 01:00:54;;;;;;;0.47;0.17;;;13.20;99.90;;;;;;4995900;28;20058;-82
2022/07/28 01:03:20;;;;;;;0.70;0.20;;;13.20;99.90;;;;;;4994189;28;20038;-79
2022/07/28 01:06:05;;;;;;;0.40;0.10;;;13.20;99.90;;;;;;4992026;28;20390;-82
2022/07/28 01:08:46;;;;;;;0.50;0.10;;;13.20;99.90;;;;;;4988551;28;20062;-83
2022/07/28 01:11:26;;;;;;;0.45;0.10;;;13.20;99.90;;;;;;4978540;28;20085;-79
2022/07/28 01:14:09;;;;;;;0.63;0.10;;;13.10;99.90;;;;;;4986045;28;20034;-82
2022/07/28 01:16:44;;;;;;;1.17;0.20;;;13.10;99.90;;;;;;4985949;28;20049;-82
2022/07/28 01:19:32;;;;;;;0.60;0.17;;;13.10;99.90;;;;;;4993188;28;20057;-82
2022/07/28 01:22:00;;;;;;;0.70;0.10;;;13.10;99.90;;;;;;4988849;28;20471;-82
2022/07/28 01:24:47;;;;;;;1.05;0.13;;;13.00;99.90;;;;;;4972053;28;20045;-81
2022/07/28 01:27:43;;;;;;;0.30;0.10;;;13.00;99.90;;;;;;4993963;28;20715;-83
2022/07/28 01:30:27;;;;;;;1.38;0.30;;;12.90;99.90;;;;;;4977065;28;20479;-83
2022/07/28 01:33:00;;;;;;;1.35;0.20;;;12.90;99.90;;;;;;4996388;28;20033;-83
2022/07/28 01:35:36;;;;;;;0.90;0.20;;;12.90;99.90;;;;;;4994608;28;20022;-81
2022/07/28 01:38:06;;;;;;;0.73;0.20;;;12.80;99.90;;;;;;4989479;28;20025;-83
2022/07/28 01:40:34;;;;;;;0.20;0.10;;;12.80;99.90;;;;;;5002080;28;20034;-83
2022/07/28 01:43:04;;;;;;;0.73;0.10;;;12.70;99.90;;;;;;4976538;28;20093;-83
2022/07/28 01:45:32;;;;;;;0.98;0.10;;;12.60;99.90;;;;;;4977232;28;20125;-78
2022/07/28 01:48:00;;;;;;;1.02;0.20;;;12.50;99.90;;;;;;4964649;28;20026;-82
2022/07/28 01:50:27;;;;;;;2.95;0.20;;;12.50;99.90;;;;;;4986818;28;20509;-81
2022/07/28 01:52:54;;;;;;;1.98;0.22;;;12.60;99.90;;;;;;4980709;28;20475;-82
2022/07/28 01:55:21;;;;;;;1.17;0.20;;;12.50;99.90;;;;;;4973778;28;20034;-80
2022/07/28 01:57:49;;;;;;;1.27;0.20;;;12.50;99.90;;;;;;4993398;28;20039;-82
2022/07/28 02:00:16;;;;;;;0.93;0.20;;;12.50;99.90;;;;;;4995361;28;20026;-79
2022/07/28 02:02:45;;;;;;;0.75;0.20;;;12.50;99.90;;;;;;4992467;28;20408;-82
2022/07/28 02:05:15;;;;;;;0.70;0.20;;;12.50;99.90;;;;;;4998956;28;20034;-82
2022/07/28 02:07:42;;;;;;;2.45;0.15;;;12.40;99.90;;;;;;5001807;28;20053;-80
2022/07/28 02:10:10;;;;;;;0.68;0.20;;;12.40;99.90;;;;;;4991276;28;20053;-79
2022/07/28 02:12:38;;;;;;;0.65;0.10;;;12.40;99.90;;;;;;5013453;28;20049;-82
2022/07/28 02:15:07;;;;;;;0.52;0.17;;;12.40;99.90;;;;;;4979612;28;20026;-83
2022/07/28 02:17:35;;;;;;;0.35;0.20;;;12.40;99.90;;;;;;5007654;28;20034;-81
2022/07/28 02:20:03;;;;;;;0.68;0.20;;;12.30;99.90;;;;;;5014698;28;20029;-83
2022/07/28 02:22:31;;;;;;;1.92;0.20;;;12.20;99.90;;;;;;4975388;28;20101;-80
2022/07/28 02:24:57;;;;;;;0.95;0.10;;;12.10;99.90;;;;;;4981920;28;20036;-82
2022/07/28 02:27:33;;;;;;;1.63;0.20;;;12.20;99.90;;;;;;4988789;28;20109;-81
2022/07/28 02:30:10;;;;;;;0.50;0.20;;;12.10;99.90;;;;;;4985312;28;20050;-80
2022/07/28 02:32:45;;;;;;;0.77;0.20;;;12.10;99.90;;;;;;5002994;28;20076;-82
2022/07/28 02:35:38;;;;;;;0.80;0.20;;;12.00;99.90;;;;;;4992330;28;20050;-79
2022/07/28 02:38:23;;;;;;;1.17;0.20;;;12.00;99.90;;;;;;5006919;28;20041;-81
2022/07/28 02:40:52;;;;;;;1.35;0.20;;;11.90;99.90;;;;;;4987819;28;20463;-82
2022/07/28 02:43:25;;;;;;;0.75;0.20;;;11.90;99.90;;;;;;5006761;28;20045;-82
2022/07/28 02:45:54;;;;;;;1.17;0.20;;;11.90;99.90;;;;;;4976592;28;20125;-81
2022/07/28 02:48:23;;;;;;;0.95;0.20;;;11.80;99.90;;;;;;5003563;28;20034;-79
2022/07/28 02:50:52;;;;;;;0.55;0.15;;;11.90;99.90;;;;;;4979989;28;20406;-82
2022/07/28 02:53:21;;;;;;;2.60;0.20;;;11.90;99.90;;;;;;4988315;28;20113;-83
2022/07/28 02:55:48;;;;;;;1.17;0.30;;;11.90;99.90;;;;;;4996994;28;20022;-81
2022/07/28 02:58:17;;;;;;;2.60;0.28;;;11.90;99.90;;;;;;5005873;28;20103;-81
2022/07/28 03:00:44;;;;;;;0.65;0.20;;;11.90;99.90;;;;;;5011474;28;20026;-81
2022/07/28 03:03:11;;;;;;;0.65;0.20;;;11.80;99.90;;;;;;4973467;28;20049;-78
2022/07/28 03:05:38;;;;;;;2.10;0.20;;;11.80;99.90;;;;;;4988624;28;20435;-82
2022/07/28 03:08:04;;;;;;;2.05;0.25;;;11.80;99.90;;;;;;4977493;28;20100;-81
2022/07/28 03:10:30;;;;;;;1.05;0.20;;;11.80;99.90;;;;;;5016063;28;20038;-80
2022/07/28 03:12:56;;;;;;;1.10;0.20;;;11.70;99.90;;;;;;4982427;28;20034;-80
2022/07/28 03:15:22;;;;;;;2.13;0.20;;;11.60;99.90;;;;;;4980410;28;20489;-83
2022/07/28 03:17:48;;;;;;;2.70;0.30;;;11.60;99.90;;;;;;5002893;28;20045;-78
2022/07/28 03:20:14;;;;;;;0.95;0.30;;;11.50;99.90;;;;;;5015911;28;20022;-79
2022/07/28 03:22:40;;;;;;;1.27;0.20;;;11.50;99.90;;;;;;4994739;28;20513;-78
2022/07/28 03:25:27;;;;;;;1.55;0.20;;;11.60;99.90;;;;;;4996994;28;20030;-81
2022/07/28 03:27:54;;;;;;;1.13;0.20;;;11.60;99.90;;;;;;4996135;28;20463;-81
2022/07/28 03:30:26;;;;;;;0.68;0.20;;;11.50;99.90;;;;;;4978789;28;20545;-82
2022/07/28 03:32:56;;;;;;;2.53;0.20;;;11.50;99.90;;;;;;5003317;28;20060;-78
2022/07/28 03:35:22;;;;;;;;;;;11.50;99.90;;;;;;4990926;28;20389;-79
2022/07/28 03:37:53;;;;;;;2.20;0.30;;;11.50;99.90;;;;;;5004048;28;19909;-80
2022/07/28 03:40:22;;;;;;;1.38;0.20;;;11.40;99.90;;;;;;4991369;28;20033;-82
2022/07/28 03:42:49;;;;;;;2.28;0.68;;;11.30;99.90;;;;;;5009559;28;20113;-79
2022/07/28 03:45:15;;;;;;;1.42;0.30;;;11.30;99.90;;;;;;4983400;28;20471;-81
2022/07/28 03:47:55;;;;;;;2.00;0.30;;;11.40;99.90;;;;;;4984698;28;20033;-78
2022/07/28 03:50:23;;;;;;;1.98;0.20;;;11.30;99.90;;;;;;5002308;28;20017;-82
2022/07/28 03:52:49;;;;;;;1.55;0.30;;;11.30;99.90;;;;;;4971436;28;20116;-80
2022/07/28 03:55:14;;;;;;;0.75;0.20;;;11.20;99.90;;;;;;5006324;28;20116;-82
2022/07/28 03:57:40;;;;;;;0.70;0.20;;;11.30;99.90;;;;;;5001120;28;20040;-81
2022/07/28 04:00:07;;;;;;;0.75;0.20;;;11.20;99.90;;;;;;4979714;28;20124;-82
2022/07/28 04:02:42;;;;;;;1.05;0.30;;;11.30;99.90;;;;;;5002894;28;20046;-82
2022/07/28 04:05:13;;;;;;;0.52;0.20;;;11.30;99.90;;;;;;5000656;28;20112;-82
2022/07/28 04:07:40;;;;;;;0.70;0.20;;;11.40;99.90;;;;;;4988064;28;20141;-80
2022/07/28 04:10:07;;;;;;;1.50;0.20;;;11.40;99.90;;;;;;4994615;28;20557;-83
2022/07/28 04:12:46;;;;;;;1.15;0.22;;;11.20;99.90;;;;;;4978926;28;20112;-83
2022/07/28 04:15:13;;;;;;;0.93;0.28;;;11.20;99.90;;;;;;4998872;28;20034;-81
2022/07/28 04:17:39;;;;;;;0.60;0.30;;;11.30;99.90;;;;;;4999874;28;20029;-84
2022/07/28 04:20:06;;;;;;;1.52;0.20;;;11.40;99.90;;;;;;4968078;28;21928;-72
2022/07/28 04:22:31;;;;;;;1.35;0.28;;;11.40;99.90;;;;;;5006293;28;20042;-81
2022/07/28 04:24:57;;;;;;;1.15;0.20;;;11.30;99.90;;;;;;4987072;28;20022;-80
2022/07/28 04:27:23;;;;;;;1.15;0.40;;;11.30;99.90;;;;;;5012869;28;20446;-81
2022/07/28 04:29:48;;;;;;;0.75;0.30;;;11.20;99.90;;;;;;5001064;28;20116;-81
2022/07/28 04:32:14;;;;;;;0.85;0.30;;;11.20;99.90;;;;;;4983615;28;20026;-80
2022/07/28 04:34:39;;;;;;;1.50;0.20;;;11.30;99.90;;;;;;5000407;28;20088;-78
2022/07/28 04:37:05;;;;;;;2.03;0.30;;;11.40;99.90;;;;;;5000319;28;20450;-80
2022/07/28 04:39:31;;;;;;;2.03;0.30;;;11.50;99.90;;;;;;5001261;28;20033;-79
2022/07/28 04:41:56;;;;;;;2.65;0.30;;;11.40;99.90;;;;;;5000036;28;20029;-81
2022/07/28 04:44:22;;;;;;;2.03;0.30;;;11.50;99.90;;;;;;4985552;28;20597;-78
2022/07/28 04:46:47;;;;;;;3.70;0.20;;;11.50;99.90;;;;;;5004160;28;20025;-77
2022/07/28 04:49:13;;;;;;;0.77;0.22;;;11.60;99.90;;;;;;4983166;28;20036;-84
2022/07/28 04:51:39;;;;;;;0.52;0.10;;;11.70;99.90;;;;;;4976026;28;20248;-79
2022/07/28 04:54:04;;;;;;;0.95;0.30;;;11.80;99.90;;;;;;5004868;28;20030;-81
2022/07/28 04:56:30;;;;;;;2.13;0.30;;;11.80;99.90;;;;;;4998650;28;20541;-79
2022/07/28 04:58:57;;;;;;;1.65;0.40;;;12.00;99.90;;;;;;4980991;28;20030;-78
2022/07/28 05:01:23;;;;;;;1.80;0.30;;;12.10;99.90;;;;;;4960872;28;20398;-80
2022/07/28 05:03:48;;;;;;;3.10;0.40;;;12.30;99.90;;;;;;4959532;28;20051;-80
2022/07/28 05:06:14;;;;;;;1.40;0.30;;;12.40;99.90;;;;;;4956328;28;20030;-81
2022/07/28 05:08:40;;;;;;;1.05;0.30;;;12.50;99.90;;;;;;5000346;28;20042;-80
2022/07/28 05:11:05;;;;;;;1.60;0.30;;;12.70;99.90;;;;;;4964747;28;20458;-79
2022/07/28 05:13:32;;;;;;;2.00;0.25;;;12.80;99.90;;;;;;4965645;28;20560;-79
2022/07/28 05:15:58;;;;;;;0.90;0.35;;;12.90;99.90;;;;;;4983913;28;20081;-81
2022/07/28 05:18:24;;;;;;;1.75;0.28;;;12.80;99.90;;;;;;4969296;28;20437;-83
2022/07/28 05:20:49;;;;;;;1.83;0.30;;;12.90;99.90;;;;;;4973900;28;20398;-82
2022/07/28 05:23:16;;;;;;;1.77;0.30;;;12.90;99.90;;;;;;4982355;28;20095;-79
2022/07/28 05:25:42;;;;;;;1.90;0.50;;;12.90;99.90;;;;;;5001904;28;20025;-80
2022/07/28 05:28:07;;;;;;;2.17;0.40;;;12.90;99.90;;;;;;4994986;28;20112;-79
2022/07/28 05:30:35;;;;;;;1.10;0.40;;;13.00;99.90;;;;;;4998097;28;20034;-79
2022/07/28 05:33:01;;;;;;;1.45;0.22;;;13.10;99.90;;;;;;4985762;28;20038;-81
2022/07/28 05:35:27;;;;;;;1.23;0.30;;;13.20;99.90;;;;;;5000810;28;20660;-80
2022/07/28 05:37:52;;;;;;;0.60;0.20;;;13.20;99.90;;;;;;4983601;28;20771;-86
2022/07/28 05:40:18;;;;;;;1.40;0.30;;;13.30;99.90;;;;;;4979138;28;20052;-80
2022/07/28 05:42:46;;;;;;;1.85;0.30;;;13.30;99.90;;;;;;4988414;28;20487;-82
2022/07/28 05:45:12;;;;;;;0.93;0.20;;;13.30;99.90;;;;;;4995753;28;20040;-80
2022/07/28 05:47:46;;;;;;;1.17;0.22;;;13.40;99.90;;;;;;4958684;28;20042;-83
2022/07/28 05:50:14;;;;;;;5.60;0.63;;;13.50;99.90;;;;;;4996698;28;20121;-85
2022/07/28 05:52:40;;;;;;;1.02;0.20;;;13.50;99.90;;;;;;4961037;28;20037;-79
2022/07/28 05:55:06;;;;;;;1.58;0.20;;;13.70;99.90;;;;;;4973713;28;20029;-81
2022/07/28 05:57:32;;;;;;;1.55;0.30;;;13.80;99.90;;;;;;4967634;28;20171;-84
2022/07/28 05:59:58;;;;;;;1.10;0.13;;;14.00;99.90;;;;;;4966150;28;20419;-81
2022/07/28 06:02:23;;;;;;;0.88;0.35;;;14.10;99.90;;;;;;4993616;28;20041;-82
2022/07/28 06:04:49;;;;;;;3.38;0.20;;;14.20;99.90;;;;;;4965984;28;20029;-79
2022/07/28 06:07:14;;;;;;;1.67;0.20;;;14.20;99.90;;;;;;4983793;28;20062;-85
2022/07/28 06:09:40;;;;;;;1.40;0.20;;;14.50;99.90;;;;;;4966545;28;20148;-79
2022/07/28 06:12:06;;;;;;;0.80;0.20;;;14.60;99.90;;;;;;4975773;28;20145;-80
2022/07/28 06:14:32;;;;;;;1.10;0.20;;;14.70;99.90;;;;;;4958875;28;20080;-81
2022/07/28 06:16:57;;;;;;;1.27;0.20;;;14.70;99.90;;;;;;4986784;28;20379;-80
2022/07/28 06:19:23;;;;;;;1.05;0.25;;;14.80;99.90;;;;;;5003688;28;20033;-81
2022/07/28 06:21:51;;;;;;;0.65;0.20;;;15.10;99.90;;;;;;4976969;28;20034;-85
2022/07/28 06:24:17;;;;;;;1.17;0.20;;;15.20;99.90;;;;;;4999556;28;20084;-81
2022/07/28 06:26:43;;;;;;;0.93;0.20;;;15.40;99.90;;;;;;4995622;28;20450;-84
2022/07/28 06:29:09;;;;;;;0.90;0.20;;;15.60;99.90;;;;;;4993360;28;20046;-84
2022/07/28 06:31:35;;;;;;;0.63;0.10;;;15.80;99.90;;;;;;4999255;28;20042;-83
2022/07/28 06:34:01;;;;;;;3.80;0.20;;;16.00;99.90;;;;;;4981206;28;20370;-83
2022/07/28 06:36:27;;;;;;;1.33;0.20;;;16.00;99.90;;;;;;5005567;28;20092;-87
2022/07/28 06:38:53;;;;;;;3.03;0.20;;;16.20;99.90;;;;;;4982218;28;20057;-81
2022/07/28 06:41:19;;;;;;;0.80;0.10;;;16.10;99.90;;;;;;5002166;28;20478;-83
2022/07/28 06:43:44;;;;;;;1.27;0.20;;;16.00;99.90;;;;;;4990375;28;20042;-86
2022/07/28 06:46:10;;;;;;;2.25;0.20;;;16.30;99.90;;;;;;4999880;28;20034;-82
2022/07/28 06:48:37;;;;;;;1.92;0.10;;;16.40;99.90;;;;;;4969749;28;20041;-78
2022/07/28 06:51:03;;;;;;;1.05;0.20;;;16.60;99.90;;;;;;4988126;28;20026;-82
2022/07/28 06:53:28;;;;;;;0.47;0.10;;;16.80;99.90;;;;;;4998190;28;20513;-82
2022/07/28 06:55:54;;;;;;;1.05;0.10;;;17.20;99.90;;;;;;4983270;28;20018;-89
2022/07/28 06:58:20;;;;;;;0.82;0.13;;;17.50;99.90;;;;;;5005671;28;20065;-81
2022/07/28 07:00:45;;;;;;;0.80;0.20;;;17.60;99.90;;;;;;5002310;28;20037;-90
2022/07/28 07:03:11;;;;;;;2.00;0.20;;;17.60;99.90;;;;;;4979431;28;20100;-85
2022/07/28 07:05:37;;;;;;;4.03;0.10;;;17.80;99.90;;;;;;4965317;28;20107;-83
2022/07/28 07:08:03;;;;;;;1.13;0.10;;;17.90;99.90;;;;;;4998102;28;20128;-83
2022/07/28 07:10:28;;;;;;;2.20;0.20;;;17.70;99.90;;;;;;4986247;28;20027;-87
2022/07/28 07:12:54;;;;;;;1.95;0.15;;;17.60;99.90;;;;;;4950730;28;20026;-83
2022/07/28 07:15:20;;;;;;;2.25;0.10;;;17.60;99.90;;;;;;4978010;28;20043;-89
2022/07/28 07:17:45;;;;;;;3.47;0.20;;;17.40;99.90;;;;;;4966043;28;20072;-85
2022/07/28 07:20:13;;;;;;;1.70;0.10;;;17.50;99.90;;;;;;4965080;28;20034;-81
2022/07/28 07:22:43;;;;;;;0.70;0.10;;;17.60;99.90;;;;;;4972058;28;20034;-85
2022/07/28 07:25:10;;;;;;;0.85;0.10;;;17.50;99.90;;;;;;4963418;28;20038;-80
2022/07/28 07:27:36;;;;;;;1.17;0.10;;;17.60;99.90;;;;;;4979168;28;20040;-85
2022/07/28 07:30:04;;;;;;;1.48;0.10;;;17.70;99.90;;;;;;4987344;28;20025;-83
2022/07/28 07:32:29;;;;;;;0.63;0.08;;;17.90;99.90;;;;;;4977967;28;20145;-79
2022/07/28 07:34:55;;;;;;;0.52;0.10;;;18.10;99.90;;;;;;4971982;28;20113;-83
2022/07/28 07:37:21;;;;;;;0.98;0.10;;;18.20;99.90;;;;;;4968719;28;20037;-86
2022/07/28 07:39:46;;;;;;;1.40;0.10;;;18.20;99.90;;;;;;4966681;28;20034;-89
2022/07/28 07:42:12;;;;;;;2.45;0.17;;;18.10;99.90;;;;;;4951637;28;20109;-88
2022/07/28 07:44:37;;;;;;;2.47;0.20;;;18.20;99.90;;;;;;4961373;28;20113;-87
2022/07/28 07:47:03;;;;;;;0.77;0.10;;;18.30;99.90;;;;;;4969813;28;20133;-86
2022/07/28 07:49:29;;;;;;;1.98;0.20;;;18.40;99.90;;;;;;4984237;28;20046;-89
2022/07/28 07:51:55;;;;;;;1.60;0.10;;;18.60;99.90;;;;;;4962667;28;20038;-87
2022/07/28 07:54:20;;;;;;;1.02;0.10;;;18.50;99.90;;;;;;4985096;28;20410;-83
2022/07/28 07:56:46;;;;;;;2.28;0.10;;;18.50;99.90;;;;;;4960705;28;20089;-81
2022/07/28 07:59:12;;;;;;;0.60;0.10;;;18.40;99.90;;;;;;4981319;28;20038;-87
2022/07/28 08:01:37;;;;;;;0.70;0.10;;;18.60;99.90;;;;;;4961273;28;20026;-89
2022/07/28 08:04:03;;;;;;;2.10;0.13;;;18.70;99.90;;;;;;4972640;28;20101;-84
2022/07/28 08:06:29;;;;;;;0.98;0.10;;;19.00;99.90;;;;;;4981049;28;20062;-82
2022/07/28 08:08:55;;;;;;;0.80;0.10;;;19.20;99.90;;;;;;4944176;28;20085;-86
2022/07/28 08:11:20;;;;;;;0.52;0.05;;;19.20;99.90;;;;;;4983498;28;20030;-84
2022/07/28 08:13:46;;;;;;;0.88;0.10;;;19.00;99.90;;;;;;4965733;28;20045;-88
2022/07/28 08:16:12;;;;;;;1.25;0.10;;;19.10;99.90;;;;;;4963710;28;20520;-89
2022/07/28 08:18:37;;;;;;;0.63;0.10;;;19.60;99.90;;;;;;4963350;28;20034;-88
2022/07/28 08:21:03;;;;;;;2.45;0.13;;;19.40;99.90;;;;;;4959109;28;20114;-90
2022/07/28 08:23:28;;;;;;;1.02;0.10;;;19.80;99.90;;;;;;4970428;28;20089;-91
2022/07/28 08:25:54;;;;;;;0.77;0.10;;;19.70;99.90;;;;;;4984159;28;20023;-89
2022/07/28 08:28:20;;;;;;;0.57;0.10;;;19.90;99.90;;;;;;4977655;28;20058;-92
2022/07/28 08:30:46;;;;;;;1.05;0.10;;;20.20;99.90;;;;;;4986339;28;20096;-82
2022/07/28 08:33:11;;;;;;;1.27;0.10;;;20.10;99.90;;;;;;4969149;28;20117;-80
2022/07/28 08:35:37;;;;;;;0.77;0.10;;;20.00;99.90;;;;;;4962153;28;20501;-92
2022/07/28 08:38:04;;;;;;;0.45;0.10;;;20.60;99.90;;;;;;4945425;28;20034;-89
2022/07/28 08:40:33;;;;;;;0.95;0.10;;;20.80;99.90;;;;;;4973254;28;20292;-83
2022/07/28 08:43:17;;;;;;;0.55;0.00;;;20.70;99.90;;;;;;4980157;28;20514;-83
2022/07/28 08:45:47;;;;;;;0.85;0.10;;;20.70;99.90;;;;;;4985194;28;20026;-92
2022/07/28 08:48:15;;;;;;;2.33;0.10;;;20.20;99.90;;;;;;4960752;28;20113;-87
2022/07/28 08:50:42;;;;;;;1.23;0.10;;;19.90;99.90;;;;;;4985115;28;20034;-87
2022/07/28 08:53:08;;;;;;;0.70;0.00;;;20.00;99.90;;;;;;4986421;28;20398;-86
2022/07/28 08:55:35;;;;;;;0.73;0.10;;;20.30;99.90;;;;;;4974792;28;20077;-85
2022/07/28 08:58:01;;;;;;;1.88;0.00;;;20.30;99.90;;;;;;4938129;28;20121;-81
2022/07/28 09:00:27;;;;;;;1.65;0.05;;;20.80;99.90;;;;;;4979212;28;20037;-90
2022/07/28 09:02:54;;;;;;;0.15;0.00;;;21.30;99.90;;;;;;4952988;28;20049;-87
2022/07/28 09:05:21;;;;;;;0.80;0.10;;;21.20;99.90;;;;;;4984579;28;20045;-84
2022/07/28 09:07:49;;;;;;;0.85;0.10;;;21.10;99.90;;;;;;4970417;28;20042;-84
2022/07/28 09:10:16;;;;;;;0.40;0.10;;;21.00;99.90;;;;;;4987841;28;20876;-86
2022/07/28 09:12:43;;;;;;;0.65;0.00;;;21.10;99.90;;;;;;4983735;28;20038;-92
2022/07/28 09:15:10;;;;;;;0.40;0.00;;;21.20;99.90;;;;;;4994103;28;20030;-84
2022/07/28 09:17:37;;;;;;;0.30;0.00;;;20.80;99.90;;;;;;4981628;28;20040;-84
2022/07/28 09:20:03;;;;;;;0.95;0.10;;;20.80;99.90;;;;;;4983247;28;20026;-89
2022/07/28 09:22:32;;;;;;;1.15;0.10;;;20.80;99.90;;;;;;4969258;28;20053;-84
2022/07/28 09:24:57;;;;;;;0.60;0.10;;;21.00;99.90;;;;;;5004116;28;20125;-86
2022/07/28 09:27:23;;;;;;;0.57;0.10;;;21.30;99.90;;;;;;4983535;28;20545;-87
2022/07/28 09:29:58;;;;;;;0.60;0.08;;;21.10;99.90;;;;;;4986958;28;20026;-92
2022/07/28 09:32:24;;;;;;;0.22;0.00;;;21.40;99.90;;;;;;5003718;28;20629;-90
2022/07/28 09:34:51;;;;;;;1.35;0.05;;;21.70;99.90;;;;;;4990153;28;20040;-85
2022/07/28 09:37:22;;;;;;;0.75;0.10;;;21.90;99.90;;;;;;4975094;28;20029;-88
2022/07/28 09:39:49;;;;;;;0.82;0.10;;;21.80;99.90;;;;;;4985924;28;20057;-86
2022/07/28 09:42:17;;;;;;;2.72;0.10;;;21.90;99.90;;;;;;4985255;28;20415;-91
2022/07/28 09:44:43;;;;;;;1.13;0.10;;;22.30;99.90;;;;;;4996344;28;20393;-87
2022/07/28 09:47:32;;;;;;;0.30;0.00;;;22.20;99.90;;;;;;5005403;28;20029;-84
2022/07/28 09:49:59;;;;;;;1.15;0.10;;;21.90;99.90;;;;;;5009458;28;20129;-86
2022/07/28 09:52:33;;;;;;;1.15;0.32;;;22.40;99.90;;;;;;4992029;28;20030;-88
2022/07/28 09:55:07;;;;;;;2.10;0.10;;;22.20;99.90;;;;;;5008244;28;20029;-84
2022/07/28 09:57:34;;;;;;;0.75;0.10;;;22.20;99.90;;;;;;5003896;28;20086;-81
2022/07/28 10:00:00;;;;;;;0.43;0.10;;;22.40;99.90;;;;;;4986151;28;20137;-82
2022/07/28 10:02:30;;;;;;;1.67;0.10;;;21.90;99.90;;;;;;5002471;28;20038;-88
2022/07/28 10:04:57;;;;;;;1.05;0.10;;;22.10;99.90;;;;;;5004495;28;20033;-86
2022/07/28 10:07:23;;;;;;;0.32;0.00;;;22.20;99.90;;;;;;5004948;28;20033;-83
2022/07/28 10:10:00;;;;;;;0.35;0.03;;;22.50;99.90;;;;;;4991471;28;20498;-83
2022/07/28 10:12:29;;;;;;;0.77;0.00;;;22.40;99.90;;;;;;5002315;28;20034;-83
2022/07/28 10:14:58;;;;;;;0.68;0.03;;;22.30;99.90;;;;;;4959197;28;20542;-85
2022/07/28 10:17:32;;;;;;;0.63;0.00;;;22.20;99.90;;;;;;4997976;28;20153;-82
2022/07/28 10:19:59;;;;;;;1.17;0.10;;;22.40;99.90;;;;;;4999200;28;20346;-86
2022/07/28 10:22:28;;;;;;;2.58;0.10;;;22.70;99.90;;;;;;4988575;28;20444;-85
2022/07/28 10:24:55;;;;;;;1.15;0.10;;;22.90;99.90;;;;;;4968164;28;20409;-84
2022/07/28 10:27:26;;;;;;;2.15;0.10;;;22.80;99.90;;;;;;4985440;28;20180;-88
2022/07/28 10:30:00;;;;;;;1.67;0.10;;;22.90;99.90;;;;;;4988741;28;20497;-84
2022/07/28 10:32:28;;;;;;;1.00;0.10;;;22.80;99.90;;;;;;5001317;28;20149;-86
2022/07/28 10:35:06;;;;;;;0.75;0.20;;;23.20;99.90;;;;;;4990536;28;20070;-88
2022/07/28 10:37:37;;;;;;;1.13;0.10;;;23.50;99.90;;;;;;5004757;28;20121;-84
2022/07/28 10:40:07;;;;;;;0.52;0.00;;;23.80;99.90;;;;;;4985374;28;20527;-85
2022/07/28 10:42:34;;;;;;;0.52;0.00;;;23.00;99.90;;;;;;4967739;28;20041;-85
2022/07/28 10:45:02;;;;;;;0.77;0.10;;;23.10;99.90;;;;;;5005696;28;20043;-87
2022/07/28 10:47:28;;;;;;;0.25;0.00;;;23.20;99.90;;;;;;4995010;28;20034;-83
2022/07/28 10:49:54;;;;;;;0.70;0.00;;;22.90;99.90;;;;;;4970896;28;20030;-85
2022/07/28 10:52:21;;;;;;;0.98;0.00;;;23.40;99.90;;;;;;4989875;28;20045;-88
2022/07/28 10:55:30;;;;;;;0.40;0.08;;;23.50;99.90;;;;;;4984593;28;20026;-85
2022/07/28 10:58:26;;;;;;;0.32;0.00;;;23.80;99.90;;;;;;4994327;28;20084;-92
2022/07/28 11:00:52;;;;;;;0.98;0.10;;;24.40;99.90;;;;;;4970752;28;20034;-88
2022/07/28 11:03:38;;;;;;;0.63;0.10;;;23.70;99.90;;;;;;4983072;28;20062;-86
2022/07/28 11:06:24;;;;;;;1.05;0.10;;;24.20;99.90;;;;;;4973273;28;20052;-84
2022/07/28 11:08:53;;;;;;;0.50;0.10;;;24.50;99.90;;;;;;4985604;28;20061;-85
2022/07/28 11:11:44;;;;;;;1.10;0.10;;;24.30;99.90;;;;;;4985017;28;20030;-90
2022/07/28 11:14:33;;;;;;;1.23;0.10;;;24.00;99.90;;;;;;4978864;28;20106;-85
2022/07/28 11:16:59;;;;;;;0.28;0.08;;;23.50;99.90;;;;;;4984286;28;20446;-82
2022/07/28 11:19:45;;;;;;;1.17;0.10;;;24.40;99.90;;;;;;4971817;28;20117;-85
2022/07/28 11:22:13;;;;;;;0.43;0.05;;;23.70;99.90;;;;;;5001950;28;20477;-86
2022/07/28 11:25:10;;;;;;;0.10;0.00;;;24.00;99.90;;;;;;4963858;28;20034;-85
2022/07/28 11:27:39;;;;;;;0.10;0.00;;;24.50;99.90;;;;;;4998127;28;20026;-85
2022/07/28 11:30:10;;;;;;;0.53;0.10;;;24.50;99.90;;;;;;4965099;28;20030;-83
2022/07/28 11:32:54;;;;;;;0.55;0.00;;;23.90;99.90;;;;;;4992021;28;20109;-83
2022/07/28 11:35:25;;;;;;;0.68;0.05;;;24.00;99.90;;;;;;4941758;28;20065;-85
2022/07/28 11:38:00;;;;;;;0.80;0.10;;;24.10;99.90;;;;;;4967525;28;20038;-83
2022/07/28 11:40:36;;;;;;;1.15;0.05;;;24.50;99.90;;;;;;5003669;28;20040;-88
2022/07/28 11:43:20;;;;;;;0.90;0.00;;;24.30;99.90;;;;;;4982778;28;20064;-86
2022/07/28 11:45:51;;;;;;;0.40;0.00;;;24.30;99.90;;;;;;4984948;28;20082;-86
2022/07/28 11:48:22;;;;;;;1.10;0.10;;;24.50;99.90;;;;;;5003025;28;20030;-82
2022/07/28 11:51:03;;;;;;;0.65;0.10;;;24.50;99.90;;;;;;4990824;28;20165;-82
2022/07/28 11:53:35;;;;;;;0.52;0.10;;;24.50;99.90;;;;;;4986829;28;20588;-84
2022/07/28 11:56:09;;;;;;;0.30;0.00;;;24.50;99.90;;;;;;5003903;28;20034;-85
2022/07/28 11:58:36;;;;;;;0.40;0.03;;;24.50;99.90;;;;;;4991933;28;20026;-87
2022/07/28 12:01:12;;;;;;;0.68;0.10;;;24.90;99.90;;;;;;4984159;28;20326;-81
2022/07/28 12:03:40;;;;;;;0.57;0.10;;;24.50;99.90;;;;;;5004503;28;20450;-82
2022/07/28 12:06:09;;;;;;;0.85;0.00;;;24.50;99.90;;;;;;5000914;28;20120;-82
2022/07/28 12:08:53;;;;;;;0.52;0.00;;;24.80;99.90;;;;;;4983117;28;20092;-84
2022/07/28 12:11:19;;;;;;;1.80;0.00;;;24.90;99.90;;;;;;4962534;28;20121;-83
2022/07/28 12:13:46;;;;;;;0.52;0.10;;;24.80;99.90;;;;;;5005824;28;20026;-87
2022/07/28 12:16:13;;;;;;;0.85;0.00;;;24.60;99.90;;;;;;4972724;28;20991;-84
2022/07/28 12:18:38;;;;;;;0.98;0.00;;;24.70;99.90;;;;;;4992947;28;20029;-83
2022/07/28 12:21:04;;;;;;;0.22;0.00;;;25.20;99.90;;;;;;4998544;28;20028;-84
2022/07/28 12:23:32;;;;;;;0.60;0.10;;;25.30;99.90;;;;;;4976913;28;20512;-84
2022/07/28 12:26:03;;;;;;;3.22;0.10;;;24.70;99.90;;;;;;4967159;28;20060;-86
2022/07/28 12:28:31;;;;;;;1.02;0.10;;;24.70;99.90;;;;;;4995051;28;20046;-81
2022/07/28 12:31:12;;;;;;;0.40;0.00;;;25.00;99.90;;;;;;4998968;28;20022;-83
2022/07/28 12:33:38;;;;;;;1.25;0.15;;;24.90;99.90;;;;;;4996912;28;20025;-87
2022/07/28 12:36:04;;;;;;;0.30;0.10;;;24.70;99.90;;;;;;4979006;28;20050;-84
2022/07/28 12:38:30;;;;;;;0.20;0.03;;;25.00;99.90;;;;;;5000318;28;20166;-83
2022/07/28 12:40:57;;;;;;;1.25;0.10;;;24.70;99.90;;;;;;4970283;28;20042;-87
2022/07/28 12:43:26;;;;;;;1.98;0.10;;;24.50;99.90;;;;;;5005193;28;20299;-88
2022/07/28 12:45:52;;;;;;;1.42;0.28;;;24.10;99.90;;;;;;4970771;28;20096;-88
2022/07/28 12:48:19;;;;;;;3.45;0.77;;;24.10;99.90;;;;;;4981719;28;20158;-85
2022/07/28 12:50:45;;;;;;;1.55;0.30;;;24.30;99.90;;;;;;4959435;28;20475;-82
2022/07/28 12:53:12;;;;;;;0.63;0.20;;;24.50;99.90;;;;;;4983628;28;20030;-90
2022/07/28 12:55:41;;;;;;;0.73;0.10;;;24.20;99.90;;;;;;4991029;28;20030;-84
2022/07/28 12:58:23;;;;;;;1.13;0.10;;;23.90;99.90;;;;;;4972110;28;20301;-85